createdAt,value
2017-06-17T00:00:29.550Z,77.5
2017-06-17T00:01:29.579Z,77.59
2017-06-17T00:02:29.506Z,77.4
2017-06-17T00:03:29.482Z,77.5
2017-06-17T00:04:29.465Z,77.4
2017-06-17T00:05:29.438Z,77.21
2017-06-17T00:06:29.423Z,77.4
2017-06-17T00:07:29.405Z,77.69
2017-06-17T00:08:29.428Z,77.5
2017-06-17T00:09:29.107Z,77.59
2017-06-17T00:10:29.336Z,77.59
2017-06-17T00:11:29.320Z,77.78
2017-06-17T00:12:29.293Z,77.3
2017-06-17T00:13:29.274Z,77.21
2017-06-17T00:14:29.247Z,78.07
2017-06-17T00:15:29.485Z,77.97
2017-06-17T00:16:29.209Z,77.97
2017-06-17T00:17:29.187Z,77.97
2017-06-17T00:18:28.867Z,77.78
2017-06-17T00:19:29.147Z,77.87
2017-06-17T00:20:29.124Z,77.84
2017-06-17T00:21:29.100Z,78.07
2017-06-17T00:22:29.083Z,77.84
2017-06-17T00:23:29.056Z,77.94
2017-06-17T00:24:29.041Z,78.03
2017-06-17T00:25:29.015Z,78.26
2017-06-17T00:26:28.995Z,78.07
2017-06-17T00:27:28.973Z,78.22
2017-06-17T00:28:28.948Z,77.84
2017-06-17T00:29:28.987Z,78.51
2017-06-17T00:30:28.910Z,78.31
2017-06-17T00:31:28.892Z,78.31
2017-06-17T00:32:28.871Z,78.22
2017-06-17T00:33:28.898Z,78.41
2017-06-17T00:34:28.827Z,78.22
2017-06-17T00:35:29.055Z,78.22
2017-06-17T00:36:28.780Z,78.22
2017-06-17T00:37:28.759Z,78.22
2017-06-17T00:38:28.739Z,78.13
2017-06-17T00:39:28.717Z,78.22
2017-06-17T00:40:28.693Z,78.31
2017-06-17T00:41:28.673Z,78.51
2017-06-17T00:42:28.647Z,78.22
2017-06-17T00:43:28.632Z,78.31
2017-06-17T00:44:28.611Z,78.03
2017-06-17T00:45:28.591Z,78.03
2017-06-17T00:46:28.565Z,78.03
2017-06-17T00:47:28.537Z,78.16
2017-06-17T00:48:28.519Z,78.13
2017-06-17T00:49:28.500Z,78.36
2017-06-17T00:50:28.540Z,78.26
2017-06-17T00:51:28.466Z,78.55
2017-06-17T00:52:28.435Z,78.36
2017-06-17T00:53:28.417Z,78.07
2017-06-17T00:54:28.395Z,78.36
2017-06-17T00:55:28.373Z,78.36
2017-06-17T00:56:28.358Z,77.97
2017-06-17T00:57:28.328Z,77.97
2017-06-17T00:58:28.311Z,77.87
2017-06-17T00:59:28.286Z,77.59
2017-06-17T01:00:28.268Z,77.87
2017-06-17T01:01:27.944Z,77.4
2017-06-17T01:02:28.227Z,77.78
2017-06-17T01:03:28.203Z,77.59
2017-06-17T01:04:28.191Z,77.78
2017-06-17T01:05:28.167Z,77.69
2017-06-17T01:06:28.140Z,77.59
2017-06-17T01:07:28.113Z,77.63
2017-06-17T01:08:28.099Z,77.25
2017-06-17T01:09:28.076Z,77.15
2017-06-17T01:10:28.051Z,77.06
2017-06-17T01:11:27.730Z,76.92
2017-06-17T01:12:28.006Z,76.96
2017-06-17T01:13:27.989Z,76.67
2017-06-17T01:14:27.970Z,76.67
2017-06-17T01:15:27.945Z,76.57
2017-06-17T01:16:27.926Z,76.64
2017-06-17T01:17:27.904Z,76.73
2017-06-17T01:18:27.879Z,76.96
2017-06-17T01:19:27.864Z,76.86
2017-06-17T01:20:27.851Z,76.96
2017-06-17T01:21:27.824Z,77.01
2017-06-17T01:22:27.802Z,77.06
2017-06-17T01:23:27.778Z,76.82
2017-06-17T01:24:27.759Z,76.96
2017-06-17T01:25:27.735Z,76.96
2017-06-17T01:26:27.711Z,76.67
2017-06-17T01:27:27.694Z,77.06
2017-06-17T01:28:27.669Z,76.86
2017-06-17T01:29:27.650Z,76.77
2017-06-17T01:30:27.628Z,76.86
2017-06-17T01:31:27.610Z,76.86
2017-06-17T01:32:27.584Z,76.29
2017-06-17T01:33:27.576Z,76.2
2017-06-17T01:34:27.543Z,76.2
2017-06-17T01:35:27.521Z,76.48
2017-06-17T01:36:27.500Z,76.29
2017-06-17T01:37:27.477Z,76.57
2017-06-17T01:38:27.459Z,76.48
2017-06-17T01:39:27.443Z,76.48
2017-06-17T01:40:27.417Z,76.48
2017-06-17T01:41:27.397Z,76.48
2017-06-17T01:42:27.076Z,76.29
2017-06-17T01:43:27.354Z,76
2017-06-17T01:44:27.341Z,76.48
2017-06-17T01:45:27.332Z,76.1
2017-06-17T01:46:27.291Z,76.29
2017-06-17T01:47:27.270Z,76
2017-06-17T01:48:27.246Z,76
2017-06-17T01:49:27.229Z,75.62
2017-06-17T01:50:27.212Z,75.43
2017-06-17T01:51:27.194Z,75.24
2017-06-17T01:52:27.161Z,75.43
2017-06-17T01:53:27.144Z,75.43
2017-06-17T01:54:27.116Z,75.81
2017-06-17T01:55:27.099Z,75.62
2017-06-17T01:56:27.081Z,75.81
2017-06-17T01:57:27.058Z,75.52
2017-06-17T01:58:27.034Z,75.52
2017-06-17T01:59:27.027Z,75.43
2017-06-17T02:00:26.994Z,75.52
2017-06-17T02:01:26.971Z,75.43
2017-06-17T02:02:27.003Z,75.43
2017-06-17T02:03:26.930Z,75.71
2017-06-17T02:04:26.912Z,75.81
2017-06-17T02:05:26.893Z,75.24
2017-06-17T02:06:26.875Z,75.62
2017-06-17T02:07:26.849Z,75.05
2017-06-17T02:08:26.832Z,75.62
2017-06-17T02:09:26.805Z,75.81
2017-06-17T02:10:26.784Z,75.62
2017-06-17T02:11:26.763Z,75.52
2017-06-17T02:12:26.742Z,75.14
2017-06-17T02:13:26.718Z,75.34
2017-06-17T02:14:26.751Z,75.05
2017-06-17T02:15:26.935Z,75.24
2017-06-17T02:16:26.355Z,75.05
2017-06-17T02:17:26.633Z,75.14
2017-06-17T02:18:26.612Z,75.05
2017-06-17T02:19:26.593Z,75.14
2017-06-17T02:20:26.570Z,75.05
2017-06-17T02:21:26.550Z,75.05
2017-06-17T02:22:26.233Z,75.34
2017-06-17T02:23:26.512Z,75.52
2017-06-17T02:24:26.540Z,75.14
2017-06-17T02:25:26.166Z,75.43
2017-06-17T02:26:26.443Z,74.76
2017-06-17T02:27:26.125Z,75.34
2017-06-17T02:28:26.412Z,74.95
2017-06-17T02:29:26.385Z,75.14
2017-06-17T02:30:26.060Z,74.99
2017-06-17T02:31:26.340Z,75.27
2017-06-17T02:32:26.317Z,75.05
2017-06-17T02:33:26.298Z,74.95
2017-06-17T02:34:26.277Z,74.51
2017-06-17T02:35:25.955Z,74.7
2017-06-17T02:36:26.235Z,74.99
2017-06-17T02:37:26.213Z,74.19
2017-06-17T02:38:26.197Z,74.19
2017-06-17T02:39:26.171Z,74.19
2017-06-17T02:40:26.150Z,74.28
2017-06-17T02:41:26.137Z,73.99
2017-06-17T02:42:26.105Z,74.76
2017-06-17T02:43:26.086Z,74.57
2017-06-17T02:44:26.065Z,74.76
2017-06-17T02:45:26.041Z,74.85
2017-06-17T02:46:26.020Z,74.95
2017-06-17T02:47:26.001Z,74.85
2017-06-17T02:48:25.981Z,74.85
2017-06-17T02:49:25.956Z,74.85
2017-06-17T02:50:25.937Z,74.95
2017-06-17T02:51:25.916Z,74.57
2017-06-17T02:52:25.896Z,74.57
2017-06-17T02:53:25.874Z,74.57
2017-06-17T02:54:25.852Z,74.48
2017-06-17T02:55:25.835Z,74.57
2017-06-17T02:56:25.808Z,74.66
2017-06-17T02:57:25.791Z,74.85
2017-06-17T02:58:25.775Z,74.95
2017-06-17T02:59:25.744Z,74.66
2017-06-17T03:00:25.730Z,74.85
2017-06-17T03:01:25.704Z,74.95
2017-06-17T03:02:25.734Z,74.57
2017-06-17T03:03:25.661Z,75.24
2017-06-17T03:04:25.642Z,75.05
2017-06-17T03:05:25.623Z,74.61
2017-06-17T03:06:25.598Z,74.7
2017-06-17T03:07:25.577Z,74.13
2017-06-17T03:08:25.559Z,74.51
2017-06-17T03:09:25.536Z,74.41
2017-06-17T03:10:25.513Z,74.13
2017-06-17T03:11:25.496Z,74.22
2017-06-17T03:12:25.468Z,74.13
2017-06-17T03:13:25.502Z,73.84
2017-06-17T03:14:25.126Z,73.75
2017-06-17T03:15:25.405Z,73.36
2017-06-17T03:16:25.388Z,73.75
2017-06-17T03:17:25.364Z,73.84
2017-06-17T03:18:25.347Z,73.94
2017-06-17T03:19:25.324Z,73.84
2017-06-17T03:20:25.301Z,73.94
2017-06-17T03:21:25.282Z,73.27
2017-06-17T03:22:24.960Z,73.27
2017-06-17T03:23:25.239Z,73.46
2017-06-17T03:24:25.219Z,73.46
2017-06-17T03:25:25.197Z,73.27
2017-06-17T03:26:25.182Z,73.08
2017-06-17T03:27:25.159Z,72.88
2017-06-17T03:28:25.139Z,72.98
2017-06-17T03:29:25.161Z,72.88
2017-06-17T03:30:25.097Z,73.08
2017-06-17T03:31:25.075Z,72.6
2017-06-17T03:32:25.048Z,72.79
2017-06-17T03:33:25.040Z,72.69
2017-06-17T03:34:25.008Z,72.79
2017-06-17T03:35:24.990Z,72.79
2017-06-17T03:36:24.968Z,72.31
2017-06-17T03:37:24.650Z,72.31
2017-06-17T03:38:24.977Z,72.69
2017-06-17T03:39:24.901Z,72.79
2017-06-17T03:40:24.883Z,72.69
2017-06-17T03:41:24.862Z,72.6
2017-06-17T03:42:24.840Z,72.69
2017-06-17T03:43:24.811Z,72.69
2017-06-17T03:44:24.798Z,72.5
2017-06-17T03:45:24.781Z,72.31
2017-06-17T03:46:24.762Z,72.12
2017-06-17T03:47:24.732Z,72.31
2017-06-17T03:48:24.416Z,72.12
2017-06-17T03:49:24.690Z,72.12
2017-06-17T03:50:24.674Z,71.73
2017-06-17T03:51:24.647Z,71.73
2017-06-17T03:52:24.628Z,72.02
2017-06-17T03:53:24.608Z,71.64
2017-06-17T03:54:24.588Z,71.73
2017-06-17T03:55:24.571Z,71.73
2017-06-17T03:56:24.545Z,71.55
2017-06-17T03:57:24.523Z,71.77
2017-06-17T03:58:24.508Z,71.77
2017-06-17T03:59:24.489Z,71.2
2017-06-17T04:00:24.464Z,71.2
2017-06-17T04:01:24.443Z,71.58
2017-06-17T04:02:24.422Z,71.48
2017-06-17T04:03:24.408Z,71.2
2017-06-17T04:04:24.379Z,71.2
2017-06-17T04:05:24.358Z,71.3
2017-06-17T04:06:24.335Z,71.11
2017-06-17T04:07:24.318Z,71.2
2017-06-17T04:08:23.994Z,71.01
2017-06-17T04:09:24.271Z,71.01
2017-06-17T04:10:24.255Z,71.01
2017-06-17T04:11:24.231Z,71.2
2017-06-17T04:12:24.212Z,71.11
2017-06-17T04:13:24.191Z,71.11
2017-06-17T04:14:23.868Z,71.01
2017-06-17T04:15:24.146Z,71.11
2017-06-17T04:16:24.129Z,71.2
2017-06-17T04:17:24.110Z,71.2
2017-06-17T04:18:24.093Z,71.11
2017-06-17T04:19:24.066Z,71.2
2017-06-17T04:20:24.044Z,71.11
2017-06-17T04:21:24.022Z,71.3
2017-06-17T04:22:24.000Z,71.2
2017-06-17T04:23:23.985Z,71.2
2017-06-17T04:24:23.964Z,71.39
2017-06-17T04:25:23.940Z,71.11
2017-06-17T04:26:23.919Z,71.01
2017-06-17T04:27:23.899Z,71.01
2017-06-17T04:28:23.876Z,71.2
2017-06-17T04:29:23.857Z,71.2
2017-06-17T04:30:23.834Z,71.39
2017-06-17T04:31:23.813Z,71.2
2017-06-17T04:32:23.508Z,71.39
2017-06-17T04:33:23.768Z,71.2
2017-06-17T04:34:23.769Z,71.11
2017-06-17T04:35:23.746Z,71.01
2017-06-17T04:36:23.721Z,71.2
2017-06-17T04:37:23.708Z,71.11
2017-06-17T04:38:23.364Z,71.3
2017-06-17T04:39:23.652Z,71.68
2017-06-17T04:40:23.651Z,71.68
2017-06-17T04:41:23.610Z,71.68
2017-06-17T04:42:23.589Z,71.87
2017-06-17T04:43:23.628Z,71.48
2017-06-17T04:44:23.540Z,71.97
2017-06-17T04:45:23.577Z,71.97
2017-06-17T04:46:23.507Z,71.77
2017-06-17T04:47:23.207Z,71.77
2017-06-17T04:48:23.180Z,71.77
2017-06-17T04:49:23.456Z,71.77
2017-06-17T04:50:23.428Z,71.68
2017-06-17T04:51:23.397Z,71.97
2017-06-17T04:52:23.384Z,72.25
2017-06-17T04:53:23.362Z,72.44
2017-06-17T04:54:23.341Z,72.16
2017-06-17T04:55:23.316Z,72.06
2017-06-17T04:56:23.302Z,72.54
2017-06-17T04:57:23.274Z,72.25
2017-06-17T04:58:23.308Z,72.06
2017-06-17T04:59:23.260Z,72.34
2017-06-17T05:00:23.217Z,72.73
2017-06-17T05:01:23.195Z,72.83
2017-06-17T05:02:23.173Z,72.34
2017-06-17T05:03:22.854Z,72.34
2017-06-17T05:04:23.137Z,72.83
2017-06-17T05:05:23.108Z,72.25
2017-06-17T05:06:23.100Z,72.44
2017-06-17T05:07:23.068Z,72.44
2017-06-17T05:08:23.052Z,72.92
2017-06-17T05:09:23.032Z,72.83
2017-06-17T05:10:23.013Z,72.44
2017-06-17T05:11:22.990Z,73.3
2017-06-17T05:12:22.964Z,73.11
2017-06-17T05:13:22.943Z,72.83
2017-06-17T05:14:22.918Z,73.02
2017-06-17T05:15:22.903Z,72.92
2017-06-17T05:16:22.886Z,72.83
2017-06-17T05:17:22.563Z,73.21
2017-06-17T05:18:22.839Z,73.4
2017-06-17T05:19:22.822Z,73.02
2017-06-17T05:20:22.807Z,73.11
2017-06-17T05:21:22.780Z,73.4
2017-06-17T05:22:22.765Z,73.5
2017-06-17T05:23:22.738Z,73.21
2017-06-17T05:24:22.717Z,73.4
2017-06-17T05:25:22.705Z,73.21
2017-06-17T05:26:22.674Z,73.5
2017-06-17T05:27:22.663Z,73.3
2017-06-17T05:28:22.635Z,73.3
2017-06-17T05:29:22.660Z,73.5
2017-06-17T05:30:22.595Z,73.21
2017-06-17T05:31:22.571Z,73.5
2017-06-17T05:32:22.553Z,73.15
2017-06-17T05:33:22.531Z,73.54
2017-06-17T05:34:22.510Z,73.11
2017-06-17T05:35:22.489Z,73.15
2017-06-17T05:36:22.463Z,73.5
2017-06-17T05:37:22.450Z,73.63
2017-06-17T05:38:22.424Z,73.54
2017-06-17T05:39:22.486Z,73.24
2017-06-17T05:40:22.089Z,73.44
2017-06-17T05:41:22.365Z,73.54
2017-06-17T05:42:22.343Z,73.54
2017-06-17T05:43:22.381Z,73.15
2017-06-17T05:44:22.303Z,73.44
2017-06-17T05:45:22.282Z,73.82
2017-06-17T05:46:22.260Z,73.88
2017-06-17T05:47:22.242Z,73.79
2017-06-17T05:48:22.273Z,73.63
2017-06-17T05:49:22.208Z,73.63
2017-06-17T05:50:22.179Z,73.72
2017-06-17T05:51:22.167Z,73.72
2017-06-17T05:52:22.136Z,73.54
2017-06-17T05:53:21.825Z,73.54
2017-06-17T05:54:22.098Z,73.91
2017-06-17T05:55:22.075Z,73.44
2017-06-17T05:56:22.058Z,73.44
2017-06-17T05:57:22.036Z,73.34
2017-06-17T05:58:22.011Z,73.72
2017-06-17T05:59:22.069Z,73.72
2017-06-17T06:00:21.972Z,73.44
2017-06-17T06:01:21.955Z,73.63
2017-06-17T06:02:21.937Z,73.91
2017-06-17T06:03:21.913Z,73.72
2017-06-17T06:04:21.890Z,73.72
2017-06-17T06:05:21.873Z,74.11
2017-06-17T06:06:21.852Z,74.01
2017-06-17T06:07:21.834Z,74.3
2017-06-17T06:08:21.811Z,73.82
2017-06-17T06:09:21.844Z,73.91
2017-06-17T06:10:21.779Z,74.11
2017-06-17T06:11:21.751Z,74.2
2017-06-17T06:12:21.978Z,73.72
2017-06-17T06:13:21.710Z,73.44
2017-06-17T06:14:21.684Z,73.63
2017-06-17T06:15:21.716Z,73.63
2017-06-17T06:16:21.646Z,73.63
2017-06-17T06:17:21.626Z,73.91
2017-06-17T06:18:21.609Z,73.95
2017-06-17T06:19:21.281Z,73.19
2017-06-17T06:20:21.567Z,73.66
2017-06-17T06:21:21.553Z,73.09
2017-06-17T06:22:21.519Z,73.19
2017-06-17T06:23:21.508Z,72.9
2017-06-17T06:24:21.487Z,72.99
2017-06-17T06:25:21.518Z,72.8
2017-06-17T06:26:21.444Z,73.09
2017-06-17T06:27:21.423Z,72.32
2017-06-17T06:28:21.454Z,72.42
2017-06-17T06:29:21.385Z,72.52
2017-06-17T06:30:21.384Z,72.32
2017-06-17T06:31:21.340Z,72.42
2017-06-17T06:32:21.325Z,73.13
2017-06-17T06:33:21.311Z,72.36
2017-06-17T06:34:21.283Z,72.94
2017-06-17T06:35:21.266Z,73.03
2017-06-17T06:36:21.245Z,73.03
2017-06-17T06:37:21.226Z,72.74
2017-06-17T06:38:21.214Z,72.45
2017-06-17T06:39:21.199Z,72.94
2017-06-17T06:40:21.166Z,72.55
2017-06-17T06:41:21.146Z,72.36
2017-06-17T06:42:21.129Z,73.13
2017-06-17T06:43:21.117Z,73.03
2017-06-17T06:44:21.337Z,72.64
2017-06-17T06:45:21.086Z,72.94
2017-06-17T06:46:21.054Z,73.03
2017-06-17T06:47:21.028Z,73.22
2017-06-17T06:48:21.022Z,73.13
2017-06-17T06:49:21.003Z,73.03
2017-06-17T06:50:21.024Z,73.13
2017-06-17T06:51:20.649Z,73.13
2017-06-17T06:52:20.931Z,73.22
2017-06-17T06:53:20.912Z,73.03
2017-06-17T06:54:20.887Z,73.03
2017-06-17T06:55:20.870Z,73.13
2017-06-17T06:56:20.850Z,73.03
2017-06-17T06:57:20.823Z,72.84
2017-06-17T06:58:20.806Z,73.22
2017-06-17T06:59:20.789Z,73.51
2017-06-17T07:00:20.767Z,73.61
2017-06-17T07:01:20.755Z,73.61
2017-06-17T07:02:20.729Z,73.41
2017-06-17T07:03:21.027Z,73.99
2017-06-17T07:04:20.692Z,73.9
2017-06-17T07:05:20.667Z,73.8
2017-06-17T07:06:20.653Z,73.9
2017-06-17T07:07:20.631Z,73.7
2017-06-17T07:08:20.610Z,73.99
2017-06-17T07:09:20.644Z,73.9
2017-06-17T07:10:20.569Z,73.7
2017-06-17T07:11:20.558Z,74.08
2017-06-17T07:12:20.533Z,73.83
2017-06-17T07:13:20.510Z,74.12
2017-06-17T07:14:20.487Z,73.93
2017-06-17T07:15:20.469Z,73.93
2017-06-17T07:16:20.146Z,73.93
2017-06-17T07:17:20.436Z,74.02
2017-06-17T07:18:20.411Z,73.26
2017-06-17T07:19:20.388Z,73.55
2017-06-17T07:20:20.379Z,73.45
2017-06-17T07:21:20.358Z,73.45
2017-06-17T07:22:20.335Z,73.35
2017-06-17T07:23:20.320Z,73.26
2017-06-17T07:24:20.292Z,73.65
2017-06-17T07:25:20.282Z,73.45
2017-06-17T07:26:20.256Z,73.65
2017-06-17T07:27:20.255Z,73.65
2017-06-17T07:28:20.216Z,73.65
2017-06-17T07:29:20.198Z,73.55
2017-06-17T07:30:20.178Z,73.39
2017-06-17T07:31:20.150Z,73.68
2017-06-17T07:32:20.139Z,73.68
2017-06-17T07:33:20.117Z,73.49
2017-06-17T07:34:20.092Z,73.58
2017-06-17T07:35:20.095Z,73.35
2017-06-17T07:36:20.060Z,73.49
2017-06-17T07:37:20.043Z,73.49
2017-06-17T07:38:20.019Z,73.65
2017-06-17T07:39:20.017Z,73.55
2017-06-17T07:40:19.979Z,73.58
2017-06-17T07:41:19.961Z,73.45
2017-06-17T07:42:19.938Z,73.07
2017-06-17T07:43:19.973Z,73.3
2017-06-17T07:44:19.903Z,73.1
2017-06-17T07:45:19.883Z,73.1
2017-06-17T07:46:19.869Z,73.3
2017-06-17T07:47:19.839Z,73.1
2017-06-17T07:48:19.873Z,73.2
2017-06-17T07:49:19.798Z,73
2017-06-17T07:50:19.784Z,73.3
2017-06-17T07:51:19.812Z,73.3
2017-06-17T07:52:19.744Z,73.3
2017-06-17T07:53:19.775Z,72.91
2017-06-17T07:54:19.702Z,73
2017-06-17T07:55:19.694Z,72.81
2017-06-17T07:56:19.670Z,73.2
2017-06-17T07:57:19.652Z,72.91
2017-06-17T07:58:19.621Z,72.81
2017-06-17T07:59:19.659Z,73
2017-06-17T08:00:19.591Z,72.91
2017-06-17T08:01:19.565Z,72.81
2017-06-17T08:02:19.247Z,72.91
2017-06-17T08:03:19.528Z,72.53
2017-06-17T08:04:19.506Z,73
2017-06-17T08:05:19.490Z,72.43
2017-06-17T08:06:19.471Z,72.33
2017-06-17T08:07:19.699Z,72.85
2017-06-17T08:08:19.432Z,72.85
2017-06-17T08:09:19.413Z,72.75
2017-06-17T08:10:19.391Z,72.56
2017-06-17T08:11:19.375Z,72.66
2017-06-17T08:12:19.358Z,72.47
2017-06-17T08:13:19.337Z,72.66
2017-06-17T08:14:19.319Z,72.66
2017-06-17T08:15:19.298Z,72.37
2017-06-17T08:16:18.975Z,72.47
2017-06-17T08:17:19.363Z,72.37
2017-06-17T08:18:19.242Z,72.47
2017-06-17T08:19:19.221Z,72.47
2017-06-17T08:20:19.213Z,72.28
2017-06-17T08:21:19.181Z,72.18
2017-06-17T08:22:19.165Z,72.47
2017-06-17T08:23:19.190Z,72.37
2017-06-17T08:24:19.121Z,72.28
2017-06-17T08:25:19.105Z,72.47
2017-06-17T08:26:19.097Z,71.98
2017-06-17T08:27:19.073Z,72.47
2017-06-17T08:28:19.063Z,71.98
2017-06-17T08:29:19.028Z,71.8
2017-06-17T08:30:18.706Z,71.89
2017-06-17T08:31:18.988Z,71.8
2017-06-17T08:32:18.969Z,72.22
2017-06-17T08:33:18.953Z,72.02
2017-06-17T08:34:18.928Z,71.55
2017-06-17T08:35:18.909Z,72.12
2017-06-17T08:36:18.892Z,72.12
2017-06-17T08:37:18.883Z,71.93
2017-06-17T08:38:18.866Z,71.73
2017-06-17T08:39:18.839Z,71.35
2017-06-17T08:40:18.826Z,71.45
2017-06-17T08:41:18.801Z,71.45
2017-06-17T08:42:18.786Z,71.35
2017-06-17T08:43:18.763Z,71.16
2017-06-17T08:44:18.743Z,71.06
2017-06-17T08:45:18.736Z,71.16
2017-06-17T08:46:18.706Z,70.23
2017-06-17T08:47:18.690Z,70.62
2017-06-17T08:48:18.670Z,70.52
2017-06-17T08:49:18.655Z,70.14
2017-06-17T08:50:18.640Z,70.04
2017-06-17T08:51:18.615Z,69.79
2017-06-17T08:52:18.597Z,69.69
2017-06-17T08:53:18.574Z,68.92
2017-06-17T08:54:18.557Z,69.31
2017-06-17T08:55:18.262Z,69.21
2017-06-17T08:56:18.520Z,68.73
2017-06-17T08:57:18.552Z,68.73
2017-06-17T08:58:18.537Z,69.12
2017-06-17T08:59:18.469Z,68.35
2017-06-17T09:00:18.448Z,68.38
2017-06-17T09:01:18.438Z,67.9
2017-06-17T09:02:18.414Z,67.99
2017-06-17T09:03:18.393Z,67.9
2017-06-17T09:04:18.376Z,68.35
2017-06-17T09:05:18.358Z,68.38
2017-06-17T09:06:18.343Z,67.61
2017-06-17T09:07:18.327Z,68.09
2017-06-17T09:08:18.303Z,67.9
2017-06-17T09:09:18.283Z,68.29
2017-06-17T09:10:18.274Z,67.71
2017-06-17T09:11:18.246Z,67.8
2017-06-17T09:12:18.231Z,67.51
2017-06-17T09:13:17.908Z,67.71
2017-06-17T09:14:18.191Z,68.09
2017-06-17T09:15:17.881Z,67.9
2017-06-17T09:16:18.161Z,67.71
2017-06-17T09:17:18.145Z,67.68
2017-06-17T09:18:18.121Z,67.99
2017-06-17T09:19:17.803Z,68.44
2017-06-17T09:20:17.787Z,68.25
2017-06-17T09:21:18.068Z,68.35
2017-06-17T09:22:18.051Z,67.8
2017-06-17T09:23:18.040Z,68.06
2017-06-17T09:24:18.012Z,68.06
2017-06-17T09:25:18.095Z,68.38
2017-06-17T09:26:17.976Z,68.29
2017-06-17T09:27:17.961Z,68.48
2017-06-17T09:28:17.942Z,68.19
2017-06-17T09:29:17.923Z,68.29
2017-06-17T09:30:17.905Z,67.71
2017-06-17T09:31:17.888Z,67.99
2017-06-17T09:32:17.876Z,67.99
2017-06-17T09:33:17.853Z,68.19
2017-06-17T09:34:17.835Z,67.99
2017-06-17T09:35:17.817Z,67.99
2017-06-17T09:36:17.798Z,67.61
2017-06-17T09:37:17.781Z,67.9
2017-06-17T09:38:17.765Z,67.9
2017-06-17T09:39:17.742Z,67.83
2017-06-17T09:40:17.727Z,67.35
2017-06-17T09:41:17.711Z,66.88
2017-06-17T09:42:17.686Z,67.16
2017-06-17T09:43:17.666Z,67.45
2017-06-17T09:44:17.708Z,67.35
2017-06-17T09:45:17.631Z,67.45
2017-06-17T09:46:17.624Z,66.78
2017-06-17T09:47:17.600Z,66.78
2017-06-17T09:48:17.585Z,67.07
2017-06-17T09:49:17.570Z,67.07
2017-06-17T09:50:17.545Z,67.26
2017-06-17T09:51:17.581Z,67.07
2017-06-17T09:52:17.508Z,66.88
2017-06-17T09:53:17.504Z,67.07
2017-06-17T09:54:17.474Z,67.07
2017-06-17T09:55:17.460Z,67.07
2017-06-17T09:56:17.440Z,66.97
2017-06-17T09:57:17.426Z,67.74
2017-06-17T09:58:17.399Z,67.61
2017-06-17T09:59:17.394Z,67.42
2017-06-17T10:00:17.368Z,67.9
2017-06-17T10:01:17.365Z,67.51
2017-06-17T10:02:17.348Z,68.09
2017-06-17T10:03:17.318Z,68.19
2017-06-17T10:04:17.293Z,67.8
2017-06-17T10:05:17.328Z,68.19
2017-06-17T10:06:17.259Z,68.57
2017-06-17T10:07:17.243Z,68.83
2017-06-17T10:08:16.925Z,68.25
2017-06-17T10:09:17.202Z,68.44
2017-06-17T10:10:17.189Z,69.4
2017-06-17T10:11:17.171Z,69.31
2017-06-17T10:12:17.200Z,69.31
2017-06-17T10:13:17.141Z,69.12
2017-06-17T10:14:17.118Z,69.12
2017-06-17T10:15:17.090Z,69.4
2017-06-17T10:16:17.076Z,69.5
2017-06-17T10:17:16.752Z,69.6
2017-06-17T10:18:17.034Z,69.6
2017-06-17T10:19:17.019Z,69.89
2017-06-17T10:20:17.004Z,69.69
2017-06-17T10:21:17.033Z,69.98
2017-06-17T10:22:16.960Z,69.69
2017-06-17T10:23:16.945Z,69.98
2017-06-17T10:24:16.927Z,70.07
2017-06-17T10:25:16.906Z,69.79
2017-06-17T10:26:16.887Z,69.89
2017-06-17T10:27:16.866Z,69.69
2017-06-17T10:28:16.848Z,69.69
2017-06-17T10:29:17.048Z,69.63
2017-06-17T10:30:16.812Z,69.73
2017-06-17T10:31:16.799Z,69.06
2017-06-17T10:32:16.778Z,69.63
2017-06-17T10:33:16.757Z,69.44
2017-06-17T10:34:16.750Z,69.47
2017-06-17T10:35:16.724Z,69.38
2017-06-17T10:36:16.701Z,68.7
2017-06-17T10:37:16.683Z,68.99
2017-06-17T10:38:16.692Z,68.6
2017-06-17T10:39:16.648Z,68.22
2017-06-17T10:40:16.633Z,68.16
2017-06-17T10:41:16.613Z,67.19
2017-06-17T10:42:16.599Z,67.97
2017-06-17T10:43:16.573Z,67.97
2017-06-17T10:44:16.561Z,67.61
2017-06-17T10:45:16.541Z,67.03
2017-06-17T10:46:16.524Z,67.23
2017-06-17T10:47:16.204Z,67.33
2017-06-17T10:48:16.491Z,66.94
2017-06-17T10:49:16.521Z,66.65
2017-06-17T10:50:16.504Z,66.94
2017-06-17T10:51:16.491Z,66.55
2017-06-17T10:52:16.425Z,66.46
2017-06-17T10:53:16.402Z,66.07
2017-06-17T10:54:16.390Z,65.98
2017-06-17T10:55:16.374Z,66.14
2017-06-17T10:56:16.351Z,67
2017-06-17T10:57:16.328Z,67.39
2017-06-17T10:58:16.316Z,67.77
2017-06-17T10:59:16.310Z,67.49
2017-06-17T11:00:16.286Z,68.06
2017-06-17T11:01:16.272Z,67.97
2017-06-17T11:02:15.941Z,68.26
2017-06-17T11:03:16.224Z,68.16
2017-06-17T11:04:16.212Z,68.06
2017-06-17T11:05:16.193Z,67.97
2017-06-17T11:06:16.172Z,67.68
2017-06-17T11:07:16.157Z,67.87
2017-06-17T11:08:16.140Z,68.06
2017-06-17T11:09:16.135Z,68.44
2017-06-17T11:10:16.110Z,68.06
2017-06-17T11:11:16.085Z,67.97
2017-06-17T11:12:16.064Z,68.35
2017-06-17T11:13:16.051Z,68.44
2017-06-17T11:14:16.034Z,68.74
2017-06-17T11:15:16.016Z,68.44
2017-06-17T11:16:15.994Z,68.93
2017-06-17T11:17:15.675Z,69.09
2017-06-17T11:18:15.961Z,69.02
2017-06-17T11:19:15.941Z,68.99
2017-06-17T11:20:15.926Z,68.9
2017-06-17T11:21:15.902Z,68.9
2017-06-17T11:22:15.894Z,68.51
2017-06-17T11:23:15.873Z,68.64
2017-06-17T11:24:15.850Z,69.41
2017-06-17T11:25:15.832Z,69.41
2017-06-17T11:26:15.829Z,68.99
2017-06-17T11:27:15.798Z,69.41
2017-06-17T11:28:16.028Z,68.93
2017-06-17T11:29:15.819Z,69.12
2017-06-17T11:30:15.769Z,69.22
2017-06-17T11:31:15.721Z,69.02
2017-06-17T11:32:15.712Z,68.84
2017-06-17T11:33:15.687Z,69.12
2017-06-17T11:34:15.677Z,68.84
2017-06-17T11:35:15.659Z,68.96
2017-06-17T11:36:15.642Z,68.64
2017-06-17T11:37:15.632Z,68.58
2017-06-17T11:38:15.620Z,69.06
2017-06-17T11:39:15.599Z,68.96
2017-06-17T11:40:15.567Z,69.15
2017-06-17T11:41:15.567Z,68.29
2017-06-17T11:42:15.246Z,68.19
2017-06-17T11:43:15.512Z,69.15
2017-06-17T11:44:15.508Z,69.25
2017-06-17T11:45:15.485Z,68.77
2017-06-17T11:46:15.474Z,68.96
2017-06-17T11:47:15.466Z,68.19
2017-06-17T11:48:15.424Z,68.38
2017-06-17T11:49:15.404Z,68.1
2017-06-17T11:50:15.391Z,68.68
2017-06-17T11:51:15.374Z,68.68
2017-06-17T11:52:15.350Z,69.06
2017-06-17T11:53:15.339Z,68.96
2017-06-17T11:54:15.316Z,68.58
2017-06-17T11:55:15.298Z,69.06
2017-06-17T11:56:14.982Z,69.06
2017-06-17T11:57:15.268Z,68.19
2017-06-17T11:58:14.947Z,69.06
2017-06-17T11:59:15.240Z,69.06
2017-06-17T12:00:15.206Z,68.54
2017-06-17T12:01:15.205Z,68.74
2017-06-17T12:02:15.178Z,68.58
2017-06-17T12:03:14.861Z,69.06
2017-06-17T12:04:15.135Z,68.77
2017-06-17T12:05:15.123Z,68.96
2017-06-17T12:06:15.100Z,68.68
2017-06-17T12:07:15.084Z,68.68
2017-06-17T12:08:15.066Z,68.54
2017-06-17T12:09:15.046Z,68.74
2017-06-17T12:10:15.031Z,68.77
2017-06-17T12:11:15.015Z,68.96
2017-06-17T12:12:14.997Z,68.96
2017-06-17T12:13:14.977Z,68.58
2017-06-17T12:14:14.957Z,68.44
2017-06-17T12:15:14.941Z,68.77
2017-06-17T12:16:14.921Z,68.93
2017-06-17T12:17:14.902Z,69.12
2017-06-17T12:18:14.886Z,68.19
2017-06-17T12:19:14.869Z,68.96
2017-06-17T12:20:14.850Z,68.19
2017-06-17T12:21:14.849Z,68.1
2017-06-17T12:22:14.819Z,68.04
2017-06-17T12:23:14.803Z,67.07
2017-06-17T12:24:14.787Z,66.97
2017-06-17T12:25:14.763Z,67.36
2017-06-17T12:26:14.743Z,66.59
2017-06-17T12:27:14.724Z,66.33
2017-06-17T12:28:14.703Z,66.14
2017-06-17T12:29:14.692Z,65.88
2017-06-17T12:30:14.675Z,65.5
2017-06-17T12:31:14.659Z,64.95
2017-06-17T12:32:14.643Z,64.18
2017-06-17T12:33:14.627Z,64.4
2017-06-17T12:34:14.609Z,63.73
2017-06-17T12:35:14.599Z,63.28
2017-06-17T12:36:14.573Z,63.08
2017-06-17T12:37:14.562Z,62.12
2017-06-17T12:38:14.546Z,62.18
2017-06-17T12:39:14.527Z,62.18
2017-06-17T12:40:14.514Z,62.89
2017-06-17T12:41:14.499Z,62.57
2017-06-17T12:42:14.479Z,62.08
2017-06-17T12:43:14.460Z,62.47
2017-06-17T12:44:14.448Z,63.15
2017-06-17T12:45:14.425Z,62.57
2017-06-17T12:46:14.112Z,62.34
2017-06-17T12:47:14.395Z,62.63
2017-06-17T12:48:14.376Z,63.4
2017-06-17T12:49:14.367Z,63.79
2017-06-17T12:50:14.342Z,64.37
2017-06-17T12:51:14.339Z,64.28
2017-06-17T12:52:14.312Z,63.79
2017-06-17T12:53:14.294Z,64.28
2017-06-17T12:54:14.289Z,64.08
2017-06-17T12:55:14.262Z,63.98
2017-06-17T12:56:14.245Z,63.5